^^
Station Historical Data
Daily Summary for May 2, 2017 Units:  Both    English   Metric
« Previous Day
Next Day »
Daily Weekly Monthly Yearly Custom
  High: Low: Average:
Temperature: 73.9 °F /  23.3 °C 48.9 °F /  9.4 °C 61 °F /  16.1 °C
Dew Point: 47.1 °F /  8.4 °C 42.4 °F /  5.8 °C 45 °F /  7.2 °C
Humidity: 79% 35% 58%
Wind Speed: 10.1mph /  16.3km/h - 1.3mph /  2.1km/h
Wind Gust: 14.0mph /  22.5km/h - -
Wind- - East
Pressure: 30.10 in /  1019.2 hPa 29.99 in /  1015.5 hPa -
Precipitation: 0.00 in /  0 mm    
Historical Graphs
 
 
Tabular Data for May 2, 2017
Time Temperature Dew Point Pressure Wind Wind Speed Wind Gust Humidity Rainfall Rate (Hourly) solar Conditions
00:00 52.9 °F /  11.6 °C 44.4 °F /  6.9 °C 30.07in /  1018.2hPa Calm     73% 0.00in /  0mm 0.0 W/m2
00:06 52.7 °F /  11.5 °C 44.6 °F /  7 °C 30.07in /  1018.2hPa ENE 0.9mph /  1.4km/h 2.0mph /  3.2km/h 74% 0.00in /  0mm 0.0 W/m2
00:12 52.5 °F /  11.4 °C 44.4 °F /  6.9 °C 30.07in /  1018.2hPa Calm   1.0mph /  1.6km/h 74% 0.00in /  0mm 0.0 W/m2
00:18 52.5 °F /  11.4 °C 44.4 °F /  6.9 °C 30.07in /  1018.2hPa Calm     74% 0.00in /  0mm 0.0 W/m2
00:24 52.5 °F /  11.4 °C 44.4 °F /  6.9 °C 30.07in /  1018.2hPa Calm     74% 0.00in /  0mm 0.0 W/m2
00:31 52.5 °F /  11.4 °C 44.4 °F /  6.9 °C 30.07in /  1018.2hPa Calm   1.0mph /  1.6km/h 74% 0.00in /  0mm 0.0 W/m2
00:37 52.3 °F /  11.3 °C 44.2 °F /  6.8 °C 30.07in /  1018.2hPa Calm     74% 0.00in /  0mm 0.0 W/m2
00:43 52.3 °F /  11.3 °C 44.6 °F /  7 °C 30.07in /  1018.2hPa Calm     75% 0.00in /  0mm 0.0 W/m2
00:49 52.2 °F /  11.2 °C 44.4 °F /  6.9 °C 30.07in /  1018.2hPa Calm     75% 0.00in /  0mm 0.0 W/m2
00:55 52.2 °F /  11.2 °C 44.4 °F /  6.9 °C 30.07in /  1018.2hPa Calm     75% 0.00in /  0mm 0.0 W/m2
01:01 52.2 °F /  11.2 °C 44.4 °F /  6.9 °C 30.07in /  1018.2hPa Calm     75% 0.00in /  0mm 0.0 W/m2
01:07 52.0 °F /  11.1 °C 44.2 °F /  6.8 °C 30.07in /  1018.2hPa Calm     75% 0.00in /  0mm 0.0 W/m2
01:14 52.0 °F /  11.1 °C 44.6 °F /  7 °C 30.07in /  1018.2hPa Calm   1.0mph /  1.6km/h 76% 0.00in /  0mm 0.0 W/m2
01:20 51.8 °F /  11 °C 44.4 °F /  6.9 °C 30.07in /  1018.2hPa Calm     76% 0.00in /  0mm 0.0 W/m2
01:26 51.6 °F /  10.9 °C 44.2 °F /  6.8 °C 30.07in /  1018.2hPa Calm   1.0mph /  1.6km/h 76% 0.00in /  0mm 0.0 W/m2
01:32 51.6 °F /  10.9 °C 44.2 °F /  6.8 °C 30.07in /  1018.2hPa Calm     76% 0.00in /  0mm 0.0 W/m2
01:38 51.6 °F /  10.9 °C 44.2 °F /  6.8 °C 30.07in /  1018.2hPa Calm     76% 0.00in /  0mm 0.0 W/m2
01:44 51.6 °F /  10.9 °C 44.2 °F /  6.8 °C 30.07in /  1018.2hPa Calm   1.0mph /  1.6km/h 76% 0.00in /  0mm 0.0 W/m2
01:50 51.6 °F /  10.9 °C 44.2 °F /  6.8 °C 30.07in /  1018.2hPa East 0.9mph /  1.4km/h 1.0mph /  1.6km/h 76% 0.00in /  0mm 0.0 W/m2
01:57 51.6 °F /  10.9 °C 44.6 °F /  7 °C 30.07in /  1018.2hPa Calm     77% 0.00in /  0mm 0.0 W/m2
02:03 51.6 °F /  10.9 °C 44.6 °F /  7 °C 30.07in /  1018.2hPa Calm     77% 0.00in /  0mm 0.0 W/m2
02:09 51.6 °F /  10.9 °C 44.6 °F /  7 °C 30.07in /  1018.2hPa NE 0.9mph /  1.4km/h 1.0mph /  1.6km/h 77% 0.00in /  0mm 0.0 W/m2
02:15 51.6 °F /  10.9 °C 44.2 °F /  6.8 °C 30.07in /  1018.2hPa Calm   1.0mph /  1.6km/h 76% 0.00in /  0mm 0.0 W/m2
02:21 51.6 °F /  10.9 °C 44.2 °F /  6.8 °C 30.07in /  1018.2hPa Calm   1.0mph /  1.6km/h 76% 0.00in /  0mm 0.0 W/m2
02:27 51.6 °F /  10.9 °C 44.2 °F /  6.8 °C 30.07in /  1018.2hPa Calm   1.0mph /  1.6km/h 76% 0.00in /  0mm 0.0 W/m2
02:33 51.6 °F /  10.9 °C 44.6 °F /  7 °C 30.07in /  1018.2hPa Calm   1.0mph /  1.6km/h 77% 0.00in /  0mm 0.0 W/m2
02:40 51.4 °F /  10.8 °C 44.4 °F /  6.9 °C 30.07in /  1018.2hPa ENE 0.9mph /  1.4km/h 3.0mph /  4.8km/h 77% 0.00in /  0mm 0.0 W/m2
02:46 51.4 °F /  10.8 °C 44.4 °F /  6.9 °C 30.07in /  1018.2hPa Calm   3.0mph /  4.8km/h 77% 0.00in /  0mm 0.0 W/m2
02:52 51.3 °F /  10.7 °C 44.2 °F /  6.8 °C 30.06in /  1017.8hPa Calm   1.0mph /  1.6km/h 77% 0.00in /  0mm 0.0 W/m2
02:58 51.3 °F /  10.7 °C 44.2 °F /  6.8 °C 30.06in /  1017.8hPa Calm   1.0mph /  1.6km/h 77% 0.00in /  0mm 0.0 W/m2
03:04 51.1 °F /  10.6 °C 44.1 °F /  6.7 °C 30.06in /  1017.8hPa Calm     77% 0.00in /  0mm 0.0 W/m2
03:10 51.1 °F /  10.6 °C 44.4 °F /  6.9 °C 30.06in /  1017.8hPa Calm     78% 0.00in /  0mm 0.0 W/m2
03:17 50.9 °F /  10.5 °C 44.2 °F /  6.8 °C 30.06in /  1017.8hPa Calm     78% 0.00in /  0mm 0.0 W/m2
03:23 50.7 °F /  10.4 °C 44.1 °F /  6.7 °C 30.06in /  1017.8hPa Calm     78% 0.00in /  0mm 0.0 W/m2
03:29 50.7 °F /  10.4 °C 44.1 °F /  6.7 °C 30.06in /  1017.8hPa Calm     78% 0.00in /  0mm 0.0 W/m2
03:35 50.7 °F /  10.4 °C 44.1 °F /  6.7 °C 30.06in /  1017.8hPa Calm   2.0mph /  3.2km/h 78% 0.00in /  0mm 0.0 W/m2
03:41 50.7 °F /  10.4 °C 44.1 °F /  6.7 °C 30.06in /  1017.8hPa Calm     78% 0.00in /  0mm 0.0 W/m2
03:47 50.5 °F /  10.3 °C 43.9 °F /  6.6 °C 30.06in /  1017.8hPa Calm     78% 0.00in /  0mm 0.0 W/m2
03:53 50.5 °F /  10.3 °C 43.9 °F /  6.6 °C 30.06in /  1017.8hPa Calm     78% 0.00in /  0mm 0.0 W/m2
04:00 50.5 °F /  10.3 °C 43.9 °F /  6.6 °C 30.06in /  1017.8hPa Calm   1.0mph /  1.6km/h 78% 0.00in /  0mm 0.0 W/m2
04:06 50.4 °F /  10.2 °C 43.7 °F /  6.5 °C 30.06in /  1017.8hPa Calm   1.0mph /  1.6km/h 78% 0.00in /  0mm 0.0 W/m2
04:12 50.4 °F /  10.2 °C 43.7 °F /  6.5 °C 30.06in /  1017.8hPa Calm     78% 0.00in /  0mm 0.0 W/m2
04:18 50.2 °F /  10.1 °C 43.9 °F /  6.6 °C 30.06in /  1017.8hPa Calm     79% 0.00in /  0mm 0.0 W/m2
04:24 50.0 °F /  10 °C 43.7 °F /  6.5 °C 30.06in /  1017.8hPa Calm   1.0mph /  1.6km/h 79% 0.00in /  0mm 0.0 W/m2
04:30 49.8 °F /  9.9 °C 43.5 °F /  6.4 °C 30.06in /  1017.8hPa Calm   1.0mph /  1.6km/h 79% 0.00in /  0mm 0.0 W/m2
04:36 49.6 °F /  9.8 °C 43.3 °F /  6.3 °C 30.06in /  1017.8hPa Calm   1.0mph /  1.6km/h 79% 0.00in /  0mm 0.0 W/m2
04:43 49.6 °F /  9.8 °C 43.3 °F /  6.3 °C 30.06in /  1017.8hPa Calm     79% 0.00in /  0mm 0.0 W/m2
04:49 49.5 °F /  9.7 °C 43.2 °F /  6.2 °C 30.06in /  1017.8hPa Calm     79% 0.00in /  0mm 0.0 W/m2
04:55 49.5 °F /  9.7 °C 43.2 °F /  6.2 °C 30.06in /  1017.8hPa Calm     79% 0.00in /  0mm 0.0 W/m2
05:01 49.5 °F /  9.7 °C 43.2 °F /  6.2 °C 30.06in /  1017.8hPa Calm     79% 0.00in /  0mm 0.0 W/m2
05:07 49.5 °F /  9.7 °C 43.2 °F /  6.2 °C 30.07in /  1018.2hPa Calm     79% 0.00in /  0mm 0.0 W/m2
05:13 49.5 °F /  9.7 °C 43.2 °F /  6.2 °C 30.07in /  1018.2hPa Calm     79% 0.00in /  0mm 0.0 W/m2
05:20 49.3 °F /  9.6 °C 43.0 °F /  6.1 °C 30.07in /  1018.2hPa Calm     79% 0.00in /  0mm 0.0 W/m2
05:26 49.1 °F /  9.5 °C 42.8 °F /  6 °C 30.07in /  1018.2hPa Calm     79% 0.00in /  0mm 0.0 W/m2
05:32 48.9 °F /  9.4 °C 42.6 °F /  5.9 °C 30.07in /  1018.2hPa Calm     79% 0.00in /  0mm 0.0 W/m2
05:38 48.9 °F /  9.4 °C 42.6 °F /  5.9 °C 30.07in /  1018.2hPa Calm     79% 0.00in /  0mm 0.0 W/m2
05:44 48.9 °F /  9.4 °C 42.6 °F /  5.9 °C 30.08in /  1018.5hPa Calm     79% 0.00in /  0mm 0.0 W/m2
05:50 48.9 °F /  9.4 °C 42.4 °F /  5.8 °C 30.08in /  1018.5hPa Calm     78% 0.00in /  0mm 0.0 W/m2
05:56 48.9 °F /  9.4 °C 42.4 °F /  5.8 °C 30.08in /  1018.5hPa Calm     78% 0.00in /  0mm 0.0 W/m2
06:03 48.9 °F /  9.4 °C 42.4 °F /  5.8 °C 30.08in /  1018.5hPa Calm     78% 0.00in /  0mm 0.0 W/m2
06:09 48.9 °F /  9.4 °C 42.4 °F /  5.8 °C 30.08in /  1018.5hPa Calm     78% 0.00in /  0mm 0.0 W/m2
06:15 48.9 °F /  9.4 °C 42.4 °F /  5.8 °C 30.08in /  1018.5hPa Calm     78% 0.00in /  0mm 5.0 W/m2
06:21 48.9 °F /  9.4 °C 42.4 °F /  5.8 °C 30.08in /  1018.5hPa Calm     78% 0.00in /  0mm 7.0 W/m2
06:27 48.9 °F /  9.4 °C 42.4 °F /  5.8 °C 30.08in /  1018.5hPa Calm   1.0mph /  1.6km/h 78% 0.00in /  0mm 9.0 W/m2
06:33 48.9 °F /  9.4 °C 42.4 °F /  5.8 °C 30.08in /  1018.5hPa ENE 0.9mph /  1.4km/h 1.0mph /  1.6km/h 78% 0.00in /  0mm 11.0 W/m2
06:40 48.9 °F /  9.4 °C 42.4 °F /  5.8 °C 30.09in /  1018.8hPa Calm     78% 0.00in /  0mm 12.0 W/m2
06:46 49.3 °F /  9.6 °C 42.8 °F /  6 °C 30.09in /  1018.8hPa Calm     78% 0.00in /  0mm 14.0 W/m2
06:52 49.3 °F /  9.6 °C 42.8 °F /  6 °C 30.09in /  1018.8hPa Calm   1.0mph /  1.6km/h 78% 0.00in /  0mm 16.0 W/m2
06:58 49.6 °F /  9.8 °C 43.0 °F /  6.1 °C 30.09in /  1018.8hPa Calm   1.0mph /  1.6km/h 78% 0.00in /  0mm 18.0 W/m2
07:04 49.8 °F /  9.9 °C 43.2 °F /  6.2 °C 30.09in /  1018.8hPa Calm   1.0mph /  1.6km/h 78% 0.00in /  0mm 18.0 W/m2
07:10 50.4 °F /  10.2 °C 43.7 °F /  6.5 °C 30.09in /  1018.8hPa Calm     78% 0.00in /  0mm 19.0 W/m2
07:16 50.7 °F /  10.4 °C 44.1 °F /  6.7 °C 30.09in /  1018.8hPa Calm   1.0mph /  1.6km/h 78% 0.00in /  0mm 21.0 W/m2
07:22 51.3 °F /  10.7 °C 44.2 °F /  6.8 °C 30.09in /  1018.8hPa Calm   2.0mph /  3.2km/h 77% 0.00in /  0mm 21.0 W/m2
07:29 52.0 °F /  11.1 °C 45.0 °F /  7.2 °C 30.10in /  1019.2hPa Calm   2.0mph /  3.2km/h 77% 0.00in /  0mm 23.0 W/m2
07:34 52.9 °F /  11.6 °C 45.1 °F /  7.3 °C 30.09in /  1018.8hPa Calm   1.0mph /  1.6km/h 75% 0.00in /  0mm 25.0 W/m2
07:40 53.8 °F /  12.1 °C 45.3 °F /  7.4 °C 30.09in /  1018.8hPa Calm   3.0mph /  4.8km/h 73% 0.00in /  0mm 25.0 W/m2
07:46 54.9 °F /  12.7 °C 45.3 °F /  7.4 °C 30.09in /  1018.8hPa Calm   4.0mph /  6.4km/h 70% 0.00in /  0mm 26.0 W/m2
07:52 55.9 °F /  13.3 °C 45.5 °F /  7.5 °C 30.10in /  1019.2hPa ENE 2.9mph /  4.7km/h 6.0mph /  9.7km/h 68% 0.00in /  0mm 26.0 W/m2
07:59 57.0 °F /  13.9 °C 45.9 °F /  7.7 °C 30.09in /  1018.8hPa Calm   4.0mph /  6.4km/h 66% 0.00in /  0mm 26.0 W/m2
08:05 58.3 °F /  14.6 °C 45.3 °F /  7.4 °C 30.09in /  1018.8hPa Calm   1.0mph /  1.6km/h 62% 0.00in /  0mm 28.0 W/m2
08:11 59.2 °F /  15.1 °C 45.3 °F /  7.4 °C 30.09in /  1018.8hPa NE 2.0mph /  3.2km/h 5.0mph /  8km/h 60% 0.00in /  0mm 28.0 W/m2
08:17 60.1 °F /  15.6 °C 45.7 °F /  7.6 °C 30.09in /  1018.8hPa ENE 2.9mph /  4.7km/h 5.0mph /  8km/h 59% 0.00in /  0mm 32.0 W/m2
08:23 61.2 °F /  16.2 °C 45.9 °F /  7.7 °C 30.09in /  1018.8hPa East 2.0mph /  3.2km/h 6.0mph /  9.7km/h 57% 0.00in /  0mm 445.0 W/m2
08:29 62.4 °F /  16.9 °C 45.5 °F /  7.5 °C 30.09in /  1018.8hPa ENE 2.9mph /  4.7km/h 7.0mph /  11.3km/h 54% 0.00in /  0mm 466.0 W/m2
08:35 63.9 °F /  17.7 °C 45.3 °F /  7.4 °C 30.09in /  1018.8hPa Calm   5.0mph /  8km/h 51% 0.00in /  0mm 483.0 W/m2
08:43 65.3 °F /  18.5 °C 45.7 °F /  7.6 °C 30.09in /  1018.8hPa NNE 2.9mph /  4.7km/h 6.0mph /  9.7km/h 49% 0.00in /  0mm 512.0 W/m2
08:49 66.4 °F /  19.1 °C 46.0 °F /  7.8 °C 30.09in /  1018.8hPa North 2.0mph /  3.2km/h 4.0mph /  6.4km/h 48% 0.00in /  0mm 529.0 W/m2
08:56 67.5 °F /  19.7 °C 46.0 °F /  7.8 °C 30.09in /  1018.8hPa NNE 6.9mph /  11.1km/h 9.0mph /  14.5km/h 46% 0.00in /  0mm 547.0 W/m2
09:02 67.8 °F /  19.9 °C 44.4 °F /  6.9 °C 30.09in /  1018.8hPa NE 6.9mph /  11.1km/h 7.0mph /  11.3km/h 43% 0.00in /  0mm 564.0 W/m2
09:08 68.0 °F /  20 °C 44.6 °F /  7 °C 30.09in /  1018.8hPa NNE 2.0mph /  3.2km/h 7.0mph /  11.3km/h 43% 0.00in /  0mm 584.0 W/m2
09:14 68.2 °F /  20.1 °C 44.2 °F /  6.8 °C 30.09in /  1018.8hPa ENE 2.9mph /  4.7km/h 7.0mph /  11.3km/h 42% 0.00in /  0mm 599.0 W/m2
09:20 68.5 °F /  20.3 °C 43.9 °F /  6.6 °C 30.09in /  1018.8hPa ENE 4.9mph /  7.9km/h 13.0mph /  20.9km/h 41% 0.00in /  0mm 613.0 W/m2
09:26 69.1 °F /  20.6 °C 44.4 °F /  6.9 °C 30.09in /  1018.8hPa ENE 6.0mph /  9.7km/h 7.0mph /  11.3km/h 41% 0.00in /  0mm 629.0 W/m2
09:32 69.1 °F /  20.6 °C 43.7 °F /  6.5 °C 30.09in /  1018.8hPa North 10.1mph /  16.3km/h 10.1mph /  16.3km/h 40% 0.00in /  0mm 642.0 W/m2
09:38 69.1 °F /  20.6 °C 43.7 °F /  6.5 °C 30.09in /  1018.8hPa NNW 4.0mph /  6.4km/h 10.0mph /  16.1km/h 40% 0.00in /  0mm 656.0 W/m2
09:44 69.1 °F /  20.6 °C 44.4 °F /  6.9 °C 30.09in /  1018.8hPa NW 8.1mph /  13km/h 8.1mph /  13km/h 41% 0.00in /  0mm 670.0 W/m2
09:51 69.4 °F /  20.8 °C 44.1 °F /  6.7 °C 30.09in /  1018.8hPa NNW 4.0mph /  6.4km/h 7.0mph /  11.3km/h 40% 0.00in /  0mm 684.0 W/m2
09:57 69.8 °F /  21 °C 45.7 °F /  7.6 °C 30.08in /  1018.5hPa ENE 6.9mph /  11.1km/h 10.0mph /  16.1km/h 42% 0.00in /  0mm 696.0 W/m2
10:03 70.2 °F /  21.2 °C 44.8 °F /  7.1 °C 30.08in /  1018.5hPa NW 0.9mph /  1.4km/h 4.0mph /  6.4km/h 40% 0.00in /  0mm 708.0 W/m2
10:09 70.3 °F /  21.3 °C 45.0 °F /  7.2 °C 30.08in /  1018.5hPa Calm   11.0mph /  17.7km/h 40% 0.00in /  0mm 719.0 W/m2
10:15 70.5 °F /  21.4 °C 45.0 °F /  7.2 °C 30.08in /  1018.5hPa ENE 2.9mph /  4.7km/h 9.0mph /  14.5km/h 40% 0.00in /  0mm 728.0 W/m2
10:21 70.9 °F /  21.6 °C 45.3 °F /  7.4 °C 30.08in /  1018.5hPa NNW 2.0mph /  3.2km/h 5.0mph /  8km/h 40% 0.00in /  0mm 744.0 W/m2
10:27 71.2 °F /  21.8 °C 45.7 °F /  7.6 °C 30.08in /  1018.5hPa NE 2.9mph /  4.7km/h 8.0mph /  12.9km/h 40% 0.00in /  0mm 756.0 W/m2
10:34 71.8 °F /  22.1 °C 45.5 °F /  7.5 °C 30.07in /  1018.2hPa North 4.0mph /  6.4km/h 9.0mph /  14.5km/h 39% 0.00in /  0mm 763.0 W/m2
10:40 71.4 °F /  21.9 °C 46.6 °F /  8.1 °C 30.07in /  1018.2hPa Calm   8.0mph /  12.9km/h 41% 0.00in /  0mm 793.0 W/m2
10:46 71.4 °F /  21.9 °C 45.9 °F /  7.7 °C 30.06in /  1017.8hPa NW 2.0mph /  3.2km/h 7.0mph /  11.3km/h 40% 0.00in /  0mm 809.0 W/m2
10:52 71.6 °F /  22 °C 46.6 °F /  8.1 °C 30.06in /  1017.8hPa East 6.0mph /  9.7km/h 8.0mph /  12.9km/h 41% 0.00in /  0mm 828.0 W/m2
10:58 72.0 °F /  22.2 °C 46.4 °F /  8 °C 30.06in /  1017.8hPa East 6.9mph /  11.1km/h 7.0mph /  11.3km/h 40% 0.00in /  0mm 821.0 W/m2
11:04 72.3 °F /  22.4 °C 46.0 °F /  7.8 °C 30.06in /  1017.8hPa North 4.9mph /  7.9km/h 5.0mph /  8km/h 39% 0.00in /  0mm 821.0 W/m2
11:10 72.7 °F /  22.6 °C 45.0 °F /  7.2 °C 30.05in /  1017.5hPa ENE 4.9mph /  7.9km/h 7.0mph /  11.3km/h 37% 0.00in /  0mm 849.0 W/m2
11:16 72.7 °F /  22.6 °C 45.7 °F /  7.6 °C 30.05in /  1017.5hPa East 2.0mph /  3.2km/h 3.0mph /  4.8km/h 38% 0.00in /  0mm 838.0 W/m2
11:23 72.7 °F /  22.6 °C 45.0 °F /  7.2 °C 30.05in /  1017.5hPa Calm   2.0mph /  3.2km/h 37% 0.00in /  0mm 849.0 W/m2
11:29 72.7 °F /  22.6 °C 45.0 °F /  7.2 °C 30.04in /  1017.2hPa North 2.0mph /  3.2km/h 8.0mph /  12.9km/h 37% 0.00in /  0mm 846.0 W/m2
11:35 72.9 °F /  22.7 °C 45.1 °F /  7.3 °C 30.04in /  1017.2hPa SE 6.0mph /  9.7km/h 11.0mph /  17.7km/h 37% 0.00in /  0mm 884.0 W/m2
11:41 72.9 °F /  22.7 °C 44.4 °F /  6.9 °C 30.04in /  1017.2hPa Calm   8.0mph /  12.9km/h 36% 0.00in /  0mm 856.0 W/m2
11:47 72.9 °F /  22.7 °C 45.1 °F /  7.3 °C 30.04in /  1017.2hPa SE 0.9mph /  1.4km/h 7.0mph /  11.3km/h 37% 0.00in /  0mm 833.0 W/m2
11:53 73.2 °F /  22.9 °C 44.6 °F /  7 °C 30.03in /  1016.8hPa SE 4.9mph /  7.9km/h 6.0mph /  9.7km/h 36% 0.00in /  0mm 891.0 W/m2
11:59 73.4 °F /  23 °C 44.8 °F /  7.1 °C 30.03in /  1016.8hPa SSE 2.9mph /  4.7km/h 9.0mph /  14.5km/h 36% 0.00in /  0mm 343.0 W/m2
12:05 73.6 °F /  23.1 °C 45.0 °F /  7.2 °C 30.03in /  1016.8hPa NE 4.9mph /  7.9km/h 10.0mph /  16.1km/h 36% 0.00in /  0mm 940.0 W/m2
12:11 73.2 °F /  22.9 °C 45.3 °F /  7.4 °C 30.03in /  1016.8hPa NNW 2.0mph /  3.2km/h 5.0mph /  8km/h 37% 0.00in /  0mm 258.0 W/m2
12:18 72.9 °F /  22.7 °C 45.1 °F /  7.3 °C 30.03in /  1016.8hPa NNE 4.9mph /  7.9km/h 7.0mph /  11.3km/h 37% 0.00in /  0mm 954.0 W/m2
12:24 73.6 °F /  23.1 °C 45.0 °F /  7.2 °C 30.02in /  1016.5hPa North 6.0mph /  9.7km/h 10.0mph /  16.1km/h 36% 0.00in /  0mm 919.0 W/m2
12:30 73.8 °F /  23.2 °C 44.4 °F /  6.9 °C 30.02in /  1016.5hPa Calm   4.0mph /  6.4km/h 35% 0.00in /  0mm 967.0 W/m2
12:36 73.9 °F /  23.3 °C 44.6 °F /  7 °C 30.02in /  1016.5hPa NE 4.9mph /  7.9km/h 10.0mph /  16.1km/h 35% 0.00in /  0mm 928.0 W/m2
12:42 73.8 °F /  23.2 °C 44.4 °F /  6.9 °C 30.02in /  1016.5hPa ENE 6.0mph /  9.7km/h 9.0mph /  14.5km/h 35% 0.00in /  0mm 1049.0 W/m2
12:48 73.2 °F /  22.9 °C 44.6 °F /  7 °C 30.01in /  1016.1hPa NE 0.9mph /  1.4km/h 10.0mph /  16.1km/h 36% 0.00in /  0mm 271.0 W/m2
12:54 73.0 °F /  22.8 °C 45.1 °F /  7.3 °C 30.01in /  1016.1hPa North 2.9mph /  4.7km/h 8.0mph /  12.9km/h 37% 0.00in /  0mm 933.0 W/m2
13:00 73.2 °F /  22.9 °C 44.6 °F /  7 °C 30.01in /  1016.1hPa NNE 2.0mph /  3.2km/h 5.0mph /  8km/h 36% 0.00in /  0mm 269.0 W/m2
13:07 72.3 °F /  22.4 °C 43.9 °F /  6.6 °C 30.01in /  1016.1hPa East 2.0mph /  3.2km/h 7.0mph /  11.3km/h 36% 0.00in /  0mm 213.0 W/m2
13:13 72.0 °F /  22.2 °C 44.2 °F /  6.8 °C 30.01in /  1016.1hPa NNE 2.0mph /  3.2km/h 5.0mph /  8km/h 37% 0.00in /  0mm 200.0 W/m2
13:19 71.4 °F /  21.9 °C 44.4 °F /  6.9 °C 30.01in /  1016.1hPa East 6.0mph /  9.7km/h 14.0mph /  22.5km/h 38% 0.00in /  0mm 158.0 W/m2
13:25 71.1 °F /  21.7 °C 44.8 °F /  7.1 °C 30.01in /  1016.1hPa North 2.0mph /  3.2km/h 11.0mph /  17.7km/h 39% 0.00in /  0mm 151.0 W/m2
13:31 70.9 °F /  21.6 °C 45.3 °F /  7.4 °C 30.00in /  1015.8hPa Calm   6.0mph /  9.7km/h 40% 0.00in /  0mm 200.0 W/m2
13:37 70.7 °F /  21.5 °C 45.9 °F /  7.7 °C 30.00in /  1015.8hPa Calm   4.0mph /  6.4km/h 41% 0.00in /  0mm 287.0 W/m2
13:43 70.9 °F /  21.6 °C 45.3 °F /  7.4 °C 30.00in /  1015.8hPa ESE 2.0mph /  3.2km/h 10.0mph /  16.1km/h 40% 0.00in /  0mm 260.0 W/m2
13:49 70.9 °F /  21.6 °C 45.3 °F /  7.4 °C 29.99in /  1015.5hPa ESE 2.9mph /  4.7km/h 7.0mph /  11.3km/h 40% 0.00in /  0mm 262.0 W/m2
13:55 70.9 °F /  21.6 °C 46.0 °F /  7.8 °C 30.00in /  1015.8hPa SE 4.0mph /  6.4km/h 8.0mph /  12.9km/h 41% 0.00in /  0mm 250.0 W/m2
14:02 70.9 °F /  21.6 °C 45.3 °F /  7.4 °C 29.99in /  1015.5hPa Calm   6.0mph /  9.7km/h 40% 0.00in /  0mm 691.0 W/m2
14:08 70.9 °F /  21.6 °C 45.3 °F /  7.4 °C 29.99in /  1015.5hPa NNE 6.9mph /  11.1km/h 9.0mph /  14.5km/h 40% 0.00in /  0mm 330.0 W/m2
14:14 71.4 °F /  21.9 °C 45.1 °F /  7.3 °C 29.99in /  1015.5hPa NNE 4.9mph /  7.9km/h 10.0mph /  16.1km/h 39% 0.00in /  0mm 712.0 W/m2
14:20 72.0 °F /  22.2 °C 45.0 °F /  7.2 °C 29.99in /  1015.5hPa NNE 4.9mph /  7.9km/h 7.0mph /  11.3km/h 38% 0.00in /  0mm 188.0 W/m2
14:26 72.1 °F /  22.3 °C 45.9 °F /  7.7 °C 29.99in /  1015.5hPa NNE 4.0mph /  6.4km/h 8.0mph /  12.9km/h 39% 0.00in /  0mm 148.0 W/m2
14:32 72.0 °F /  22.2 °C 45.7 °F /  7.6 °C 29.99in /  1015.5hPa NNE 6.0mph /  9.7km/h 10.0mph /  16.1km/h 39% 0.00in /  0mm 213.0 W/m2
14:38 71.8 °F /  22.1 °C 45.5 °F /  7.5 °C 29.99in /  1015.5hPa North 6.9mph /  11.1km/h 8.0mph /  12.9km/h 39% 0.00in /  0mm 214.0 W/m2
14:44 71.2 °F /  21.8 °C 45.0 °F /  7.2 °C 29.99in /  1015.5hPa NE 4.0mph /  6.4km/h 9.0mph /  14.5km/h 39% 0.00in /  0mm 193.0 W/m2
14:51 70.9 °F /  21.6 °C 45.3 °F /  7.4 °C 29.99in /  1015.5hPa NE 4.0mph /  6.4km/h 9.0mph /  14.5km/h 40% 0.00in /  0mm 199.0 W/m2
15:03 70.7 °F /  21.5 °C 44.6 °F /  7 °C 29.99in /  1015.5hPa NE 6.9mph /  11.1km/h 7.0mph /  11.3km/h 39% 0.00in /  0mm 225.0 W/m2
15:09 71.1 °F /  21.7 °C 44.8 °F /  7.1 °C 29.99in /  1015.5hPa ENE 4.0mph /  6.4km/h 5.0mph /  8km/h 39% 0.00in /  0mm 584.0 W/m2
15:15 72.0 °F /  22.2 °C 45.0 °F /  7.2 °C 29.99in /  1015.5hPa NE 2.9mph /  4.7km/h 3.0mph /  4.8km/h 38% 0.00in /  0mm 531.0 W/m2
15:27 72.7 °F /  22.6 °C 45.0 °F /  7.2 °C 30.00in /  1015.8hPa East 4.0mph /  6.4km/h 10.0mph /  16.1km/h 37% 0.00in /  0mm 434.0 W/m2
15:33 72.1 °F /  22.3 °C 45.1 °F /  7.3 °C 30.00in /  1015.8hPa ENE 4.9mph /  7.9km/h 6.0mph /  9.7km/h 38% 0.00in /  0mm 149.0 W/m2
15:39 71.4 °F /  21.9 °C 43.7 °F /  6.5 °C 30.00in /  1015.8hPa NNE 4.9mph /  7.9km/h 6.0mph /  9.7km/h 37% 0.00in /  0mm 135.0 W/m2
15:46 71.1 °F /  21.7 °C 43.5 °F /  6.4 °C 30.00in /  1015.8hPa ENE 0.9mph /  1.4km/h 5.0mph /  8km/h 37% 0.00in /  0mm 142.0 W/m2
15:52 70.9 °F /  21.6 °C 43.3 °F /  6.3 °C 30.00in /  1015.8hPa ENE 0.9mph /  1.4km/h 5.0mph /  8km/h 37% 0.00in /  0mm 141.0 W/m2
15:58 70.7 °F /  21.5 °C 43.2 °F /  6.2 °C 30.00in /  1015.8hPa NNE 2.9mph /  4.7km/h 5.0mph /  8km/h 37% 0.00in /  0mm 134.0 W/m2
16:04 70.5 °F /  21.4 °C 43.0 °F /  6.1 °C 30.01in /  1016.1hPa Calm   3.0mph /  4.8km/h 37% 0.00in /  0mm 111.0 W/m2
16:10 70.5 °F /  21.4 °C 43.7 °F /  6.5 °C 30.01in /  1016.1hPa NE 4.9mph /  7.9km/h 12.0mph /  19.3km/h 38% 0.00in /  0mm 97.0 W/m2
16:16 70.5 °F /  21.4 °C 43.7 °F /  6.5 °C 30.01in /  1016.1hPa ENE 0.9mph /  1.4km/h 4.0mph /  6.4km/h 38% 0.00in /  0mm 88.0 W/m2
16:22 70.3 °F /  21.3 °C 43.5 °F /  6.4 °C 30.01in /  1016.1hPa Calm   3.0mph /  4.8km/h 38% 0.00in /  0mm 76.0 W/m2
16:29 70.2 °F /  21.2 °C 44.1 °F /  6.7 °C 30.01in /  1016.1hPa NNE 0.9mph /  1.4km/h 4.0mph /  6.4km/h 39% 0.00in /  0mm 53.0 W/m2
16:35 70.0 °F /  21.1 °C 44.6 °F /  7 °C 30.01in /  1016.1hPa Calm   2.0mph /  3.2km/h 40% 0.00in /  0mm 39.0 W/m2
16:41 69.6 °F /  20.9 °C 44.2 °F /  6.8 °C 30.01in /  1016.1hPa Calm     40% 0.00in /  0mm 30.0 W/m2
16:47 69.3 °F /  20.7 °C 43.9 °F /  6.6 °C 30.02in /  1016.5hPa Calm   3.0mph /  4.8km/h 40% 0.00in /  0mm 30.0 W/m2
16:53 69.1 °F /  20.6 °C 44.4 °F /  6.9 °C 30.02in /  1016.5hPa Calm     41% 0.00in /  0mm 26.0 W/m2
16:59 68.7 °F /  20.4 °C 45.9 °F /  7.7 °C 30.02in /  1016.5hPa Calm     44% 0.00in /  0mm 26.0 W/m2
17:05 68.5 °F /  20.3 °C 45.7 °F /  7.6 °C 30.02in /  1016.5hPa Calm     44% 0.00in /  0mm 21.0 W/m2
17:11 68.2 °F /  20.1 °C 45.5 °F /  7.5 °C 30.03in /  1016.8hPa Calm   2.0mph /  3.2km/h 44% 0.00in /  0mm 11.0 W/m2
17:17 67.6 °F /  19.8 °C 45.5 °F /  7.5 °C 30.03in /  1016.8hPa Calm     45% 0.00in /  0mm 5.0 W/m2
17:24 67.5 °F /  19.7 °C 44.8 °F /  7.1 °C 30.03in /  1016.8hPa Calm     44% 0.00in /  0mm 0.0 W/m2
17:30 66.9 °F /  19.4 °C 45.0 °F /  7.2 °C 30.03in /  1016.8hPa Calm     45% 0.00in /  0mm 0.0 W/m2
17:36 66.4 °F /  19.1 °C 45.0 °F /  7.2 °C 30.03in /  1016.8hPa Calm     46% 0.00in /  0mm 0.0 W/m2
17:42 65.8 °F /  18.8 °C 45.0 °F /  7.2 °C 30.03in /  1016.8hPa Calm     47% 0.00in /  0mm 0.0 W/m2
17:48 65.5 °F /  18.6 °C 45.3 °F /  7.4 °C 30.04in /  1017.2hPa Calm   1.0mph /  1.6km/h 48% 0.00in /  0mm 0.0 W/m2
17:54 64.9 °F /  18.3 °C 45.3 °F /  7.4 °C 30.04in /  1017.2hPa Calm     49% 0.00in /  0mm 0.0 W/m2
18:00 64.6 °F /  18.1 °C 45.5 °F /  7.5 °C 30.04in /  1017.2hPa Calm     50% 0.00in /  0mm 0.0 W/m2
18:06 64.2 °F /  17.9 °C 45.7 °F /  7.6 °C 30.04in /  1017.2hPa Calm     51% 0.00in /  0mm 0.0 W/m2
18:12 63.9 °F /  17.7 °C 45.9 °F /  7.7 °C 30.04in /  1017.2hPa Calm     52% 0.00in /  0mm 0.0 W/m2
18:18 63.7 °F /  17.6 °C 45.7 °F /  7.6 °C 30.04in /  1017.2hPa Calm   2.0mph /  3.2km/h 52% 0.00in /  0mm 0.0 W/m2
18:25 63.3 °F /  17.4 °C 45.3 °F /  7.4 °C 30.04in /  1017.2hPa ESE 0.9mph /  1.4km/h 2.0mph /  3.2km/h 52% 0.00in /  0mm 0.0 W/m2
18:31 63.3 °F /  17.4 °C 45.3 °F /  7.4 °C 30.05in /  1017.5hPa Calm   1.0mph /  1.6km/h 52% 0.00in /  0mm 0.0 W/m2
18:37 63.3 °F /  17.4 °C 45.3 °F /  7.4 °C 30.05in /  1017.5hPa Calm     52% 0.00in /  0mm 0.0 W/m2
18:43 63.3 °F /  17.4 °C 45.3 °F /  7.4 °C 30.05in /  1017.5hPa Calm     52% 0.00in /  0mm 0.0 W/m2
18:49 63.3 °F /  17.4 °C 45.9 °F /  7.7 °C 30.05in /  1017.5hPa Calm     53% 0.00in /  0mm 0.0 W/m2
18:55 63.3 °F /  17.4 °C 45.9 °F /  7.7 °C 30.05in /  1017.5hPa East 0.9mph /  1.4km/h 1.0mph /  1.6km/h 53% 0.00in /  0mm 0.0 W/m2
19:01 63.3 °F /  17.4 °C 46.4 °F /  8 °C 30.05in /  1017.5hPa Calm     54% 0.00in /  0mm 0.0 W/m2
19:07 63.1 °F /  17.3 °C 46.2 °F /  7.9 °C 30.06in /  1017.8hPa Calm   1.0mph /  1.6km/h 54% 0.00in /  0mm 0.0 W/m2
19:13 63.0 °F /  17.2 °C 46.6 °F /  8.1 °C 30.06in /  1017.8hPa Calm   1.0mph /  1.6km/h 55% 0.00in /  0mm 0.0 W/m2
19:19 63.0 °F /  17.2 °C 46.6 °F /  8.1 °C 30.06in /  1017.8hPa Calm   1.0mph /  1.6km/h 55% 0.00in /  0mm 0.0 W/m2
19:26 62.8 °F /  17.1 °C 46.9 °F /  8.3 °C 30.06in /  1017.8hPa Calm     56% 0.00in /  0mm 0.0 W/m2
19:32 62.4 °F /  16.9 °C 46.6 °F /  8.1 °C 30.06in /  1017.8hPa Calm   1.0mph /  1.6km/h 56% 0.00in /  0mm 0.0 W/m2
19:38 62.2 °F /  16.8 °C 46.8 °F /  8.2 °C 30.06in /  1017.8hPa Calm     57% 0.00in /  0mm 0.0 W/m2
19:44 62.2 °F /  16.8 °C 46.8 °F /  8.2 °C 30.07in /  1018.2hPa Calm   1.0mph /  1.6km/h 57% 0.00in /  0mm 0.0 W/m2
19:50 62.1 °F /  16.7 °C 46.6 °F /  8.1 °C 30.06in /  1017.8hPa Calm   1.0mph /  1.6km/h 57% 0.00in /  0mm 0.0 W/m2
19:56 61.9 °F /  16.6 °C 46.9 °F /  8.3 °C 30.07in /  1018.2hPa Calm   1.0mph /  1.6km/h 58% 0.00in /  0mm 0.0 W/m2
20:02 61.9 °F /  16.6 °C 46.9 °F /  8.3 °C 30.07in /  1018.2hPa Calm   2.0mph /  3.2km/h 58% 0.00in /  0mm 0.0 W/m2
20:08 61.7 °F /  16.5 °C 46.8 °F /  8.2 °C 30.07in /  1018.2hPa Calm   1.0mph /  1.6km/h 58% 0.00in /  0mm 0.0 W/m2
20:14 61.5 °F /  16.4 °C 46.6 °F /  8.1 °C 30.07in /  1018.2hPa East 0.9mph /  1.4km/h 2.0mph /  3.2km/h 58% 0.00in /  0mm 0.0 W/m2
20:20 61.5 °F /  16.4 °C 46.6 °F /  8.1 °C 30.07in /  1018.2hPa Calm   2.0mph /  3.2km/h 58% 0.00in /  0mm 0.0 W/m2
20:26 61.5 °F /  16.4 °C 47.1 °F /  8.4 °C 30.07in /  1018.2hPa Calm   1.0mph /  1.6km/h 59% 0.00in /  0mm 0.0 W/m2
20:32 61.3 °F /  16.3 °C 46.9 °F /  8.3 °C 30.07in /  1018.2hPa Calm   2.0mph /  3.2km/h 59% 0.00in /  0mm 0.0 W/m2
20:38 61.2 °F /  16.2 °C 46.8 °F /  8.2 °C 30.07in /  1018.2hPa Calm   2.0mph /  3.2km/h 59% 0.00in /  0mm 0.0 W/m2
20:44 61.2 °F /  16.2 °C 47.1 °F /  8.4 °C 30.07in /  1018.2hPa Calm   2.0mph /  3.2km/h 60% 0.00in /  0mm 0.0 W/m2
20:50 61.0 °F /  16.1 °C 46.9 °F /  8.3 °C 30.07in /  1018.2hPa ENE 2.0mph /  3.2km/h 3.0mph /  4.8km/h 60% 0.00in /  0mm 0.0 W/m2
20:56 60.6 °F /  15.9 °C 47.1 °F /  8.4 °C 30.07in /  1018.2hPa ESE 0.9mph /  1.4km/h 1.0mph /  1.6km/h 61% 0.00in /  0mm 0.0 W/m2
21:02 60.4 °F /  15.8 °C 46.9 °F /  8.3 °C 30.07in /  1018.2hPa ENE 0.9mph /  1.4km/h 3.0mph /  4.8km/h 61% 0.00in /  0mm 0.0 W/m2
21:08 60.3 °F /  15.7 °C 47.1 °F /  8.4 °C 30.07in /  1018.2hPa ESE 2.0mph /  3.2km/h 2.0mph /  3.2km/h 62% 0.00in /  0mm 0.0 W/m2
21:14 59.9 °F /  15.5 °C 46.8 °F /  8.2 °C 30.07in /  1018.2hPa Calm   1.0mph /  1.6km/h 62% 0.00in /  0mm 0.0 W/m2
21:20 59.5 °F /  15.3 °C 46.6 °F /  8.1 °C 30.07in /  1018.2hPa Calm   2.0mph /  3.2km/h 62% 0.00in /  0mm 0.0 W/m2
21:26 59.4 °F /  15.2 °C 46.8 °F /  8.2 °C 30.07in /  1018.2hPa Calm   1.0mph /  1.6km/h 63% 0.00in /  0mm 0.0 W/m2
21:32 59.2 °F /  15.1 °C 46.6 °F /  8.1 °C 30.07in /  1018.2hPa Calm   1.0mph /  1.6km/h 63% 0.00in /  0mm 0.0 W/m2
21:38 58.8 °F /  14.9 °C 46.6 °F /  8.1 °C 30.07in /  1018.2hPa East 0.9mph /  1.4km/h 3.0mph /  4.8km/h 64% 0.00in /  0mm 0.0 W/m2
21:44 58.6 °F /  14.8 °C 46.9 °F /  8.3 °C 30.07in /  1018.2hPa Calm   4.0mph /  6.4km/h 65% 0.00in /  0mm 0.0 W/m2
21:50 58.5 °F /  14.7 °C 46.8 °F /  8.2 °C 30.07in /  1018.2hPa Calm   2.0mph /  3.2km/h 65% 0.00in /  0mm 0.0 W/m2
21:56 58.3 °F /  14.6 °C 46.6 °F /  8.1 °C 30.07in /  1018.2hPa ESE 0.9mph /  1.4km/h 1.0mph /  1.6km/h 65% 0.00in /  0mm 0.0 W/m2
22:02 57.9 °F /  14.4 °C 46.2 °F /  7.9 °C 30.07in /  1018.2hPa ESE 0.9mph /  1.4km/h 2.0mph /  3.2km/h 65% 0.00in /  0mm 0.0 W/m2
22:08 57.9 °F /  14.4 °C 46.6 °F /  8.1 °C 30.07in /  1018.2hPa Calm   1.0mph /  1.6km/h 66% 0.00in /  0mm 0.0 W/m2
22:14 57.7 °F /  14.3 °C 46.4 °F /  8 °C 30.07in /  1018.2hPa East 0.9mph /  1.4km/h 2.0mph /  3.2km/h 66% 0.00in /  0mm 0.0 W/m2
22:20 57.6 °F /  14.2 °C 46.2 °F /  7.9 °C 30.07in /  1018.2hPa Calm   2.0mph /  3.2km/h 66% 0.00in /  0mm 0.0 W/m2
22:26 57.6 °F /  14.2 °C 46.8 °F /  8.2 °C 30.07in /  1018.2hPa Calm   3.0mph /  4.8km/h 67% 0.00in /  0mm 0.0 W/m2
22:32 57.6 °F /  14.2 °C 46.8 °F /  8.2 °C 30.07in /  1018.2hPa Calm   3.0mph /  4.8km/h 67% 0.00in /  0mm 0.0 W/m2
22:38 57.4 °F /  14.1 °C 46.6 °F /  8.1 °C 30.07in /  1018.2hPa ENE 2.0mph /  3.2km/h 3.0mph /  4.8km/h 67% 0.00in /  0mm 0.0 W/m2
22:44 57.4 °F /  14.1 °C 46.9 °F /  8.3 °C 30.07in /  1018.2hPa Calm   1.0mph /  1.6km/h 68% 0.00in /  0mm 0.0 W/m2
22:50 57.0 °F /  13.9 °C 46.6 °F /  8.1 °C 30.07in /  1018.2hPa Calm   2.0mph /  3.2km/h 68% 0.00in /  0mm 0.0 W/m2
22:56 56.8 °F /  13.8 °C 46.4 °F /  8 °C 30.07in /  1018.2hPa ENE 0.9mph /  1.4km/h 3.0mph /  4.8km/h 68% 0.00in /  0mm 0.0 W/m2
23:02 56.8 °F /  13.8 °C 46.4 °F /  8 °C 30.07in /  1018.2hPa Calm   1.0mph /  1.6km/h 68% 0.00in /  0mm 0.0 W/m2
23:08 56.7 °F /  13.7 °C 46.6 °F /  8.1 °C 30.07in /  1018.2hPa Calm   2.0mph /  3.2km/h 69% 0.00in /  0mm 0.0 W/m2
23:14 56.3 °F /  13.5 °C 46.6 °F /  8.1 °C 30.07in /  1018.2hPa Calm   2.0mph /  3.2km/h 70% 0.00in /  0mm 0.0 W/m2
23:20 56.1 °F /  13.4 °C 46.4 °F /  8 °C 30.07in /  1018.2hPa Calm   4.0mph /  6.4km/h 70% 0.00in /  0mm 0.0 W/m2
23:26 55.9 °F /  13.3 °C 46.2 °F /  7.9 °C 30.07in /  1018.2hPa SE 2.0mph /  3.2km/h 6.0mph /  9.7km/h 70% 0.00in /  0mm 0.0 W/m2
23:32 55.9 °F /  13.3 °C 46.8 °F /  8.2 °C 30.07in /  1018.2hPa Calm   2.0mph /  3.2km/h 71% 0.00in /  0mm 0.0 W/m2
23:38 55.9 °F /  13.3 °C 46.2 °F /  7.9 °C 30.07in /  1018.2hPa Calm   2.0mph /  3.2km/h 70% 0.00in /  0mm 0.0 W/m2
23:44 56.1 °F /  13.4 °C 46.4 °F /  8 °C 30.07in /  1018.2hPa Calm   4.0mph /  6.4km/h 70% 0.00in /  0mm 0.0 W/m2
23:50 56.3 °F /  13.5 °C 46.6 °F /  8.1 °C 30.07in /  1018.2hPa Calm   3.0mph /  4.8km/h 70% 0.00in /  0mm 0.0 W/m2
23:57 56.5 °F /  13.6 °C 46.4 °F /  8 °C 30.07in /  1018.2hPa East 2.0mph /  3.2km/h 5.0mph /  8km/h 69% 0.00in /  0mm 0.0 W/m2
Olympia, Windhoek, Namibia
Compliments of Weather Underground - 3 mb